Bucksport, Maine
Current Conditions -  °F | °C
As of 3:53 PM on Tuesday 21 Oct 2014 (Local Time) from KBGR Reporting Station
Overcast Overcast  
Wind Chill: 52°   Ceiling: 3800
Heat Index: 52°   Visibility: 10mi
Dew Point: 44°   Wind: 8mph
Humidity: 74%   Direction: 60°ENE
Pressure: 30.09"   Gusts: NA
Location:  44.58°N, 68.79°W
Report Text: KBGR 211953Z 06007KT 10SM FEW028 OVC038 11/07 A3009 RMK AO2 RAE25 SLP189 P0000 T01110067
Loading
Personal Weather Stations






























Interactive Weather Map New forecast layout! Learn more

10-Day Weather Forecast

Advertisements
Track Severe Weather on mobile